createdAt,value
2018-04-25T00:00:05.428Z,87.59
2018-04-25T00:03:09.518Z,87.62
2018-04-25T00:06:12.873Z,87.87
2018-04-25T00:09:16.168Z,88.08
2018-04-25T00:12:19.480Z,88.25
2018-04-25T00:15:22.793Z,88.37
2018-04-25T00:18:26.100Z,88.44
2018-04-25T00:21:29.392Z,88.58
2018-04-25T00:24:32.718Z,88.67
2018-04-25T00:27:36.793Z,88.52
2018-04-25T00:30:40.105Z,88.92
2018-04-25T00:33:43.396Z,89.25
2018-04-25T00:36:46.720Z,89.53
2018-04-25T00:39:50.018Z,89.72
2018-04-25T00:42:54.094Z,89.76
2018-04-25T00:45:57.417Z,89.57
2018-04-25T00:49:00.732Z,89.62
2018-04-25T00:52:04.805Z,89.70
2018-04-25T00:55:08.122Z,89.85
2018-04-25T00:58:11.421Z,90.12
2018-04-25T01:01:14.737Z,90.44
2018-04-25T01:04:18.829Z,90.64
2018-04-25T01:07:22.125Z,90.86
2018-04-25T01:10:25.445Z,91.00
2018-04-25T01:13:29.510Z,91.04
2018-04-25T01:16:32.826Z,91.28
2018-04-25T01:19:36.126Z,91.41
2018-04-25T01:22:39.458Z,91.57
2018-04-25T01:25:42.754Z,91.83
2018-04-25T01:28:53.353Z,92.06
2018-04-25T01:31:56.651Z,92.28
2018-04-25T01:34:59.969Z,92.35
2018-04-25T01:38:06.738Z,92.37
2018-04-25T01:41:13.237Z,92.34
2018-04-25T01:44:22.097Z,92.44
2018-04-25T01:47:39.561Z,92.52
2018-04-25T01:50:42.869Z,92.50
2018-04-25T01:54:03.910Z,92.51
2018-04-25T01:57:25.581Z,92.46
2018-04-25T02:00:46.558Z,92.54
2018-04-25T02:03:59.894Z,92.45
2018-04-25T02:07:03.221Z,92.39
2018-04-25T02:10:07.282Z,92.34
2018-04-25T02:13:11.369Z,92.39
2018-04-25T02:16:14.686Z,92.37
2018-04-25T02:19:17.992Z,92.50
2018-04-25T02:22:21.301Z,92.61
2018-04-25T02:25:25.379Z,92.54
2018-04-25T02:28:28.668Z,92.63
2018-04-25T02:31:31.980Z,92.56
2018-04-25T02:34:35.298Z,92.20
2018-04-25T02:37:39.383Z,92.44
2018-04-25T02:40:42.681Z,92.67
2018-04-25T02:43:46.007Z,92.85
2018-04-25T02:46:50.083Z,92.94
2018-04-25T02:49:53.390Z,93.14
2018-04-25T02:52:56.703Z,93.26
2018-04-25T02:56:00.893Z,93.30
2018-04-25T02:59:04.106Z,93.42
2018-04-25T03:02:07.414Z,93.46
2018-04-25T03:05:10.710Z,93.49
2018-04-25T03:08:14.800Z,93.65
2018-04-25T03:11:18.095Z,94.02
2018-04-25T03:14:21.408Z,94.35
2018-04-25T03:17:24.734Z,94.42
2018-04-25T03:20:28.041Z,94.63
2018-04-25T03:23:31.353Z,94.67
2018-04-25T03:26:34.645Z,94.67
2018-04-25T03:29:37.969Z,94.66
2018-04-25T03:32:41.276Z,94.64
2018-04-25T03:35:44.585Z,94.66
2018-04-25T03:38:47.901Z,94.69
2018-04-25T03:41:51.985Z,94.69
2018-04-25T03:44:55.291Z,94.69
2018-04-25T03:47:59.381Z,94.64
2018-04-25T03:51:02.673Z,94.47
2018-04-25T03:54:06.059Z,94.40
2018-04-25T03:57:09.323Z,94.49
2018-04-25T04:00:12.618Z,94.59
2018-04-25T04:03:16.698Z,94.70
2018-04-25T04:06:20.005Z,94.99
2018-04-25T04:09:23.296Z,95.11
2018-04-25T04:12:26.613Z,94.92
2018-04-25T04:15:30.674Z,94.71
2018-04-25T04:18:33.988Z,94.71
2018-04-25T04:21:37.294Z,94.70
2018-04-25T04:24:40.611Z,94.69
2018-04-25T04:27:44.695Z,94.64
2018-04-25T04:30:48.827Z,94.64
2018-04-25T04:33:52.145Z,94.67
2018-04-25T04:36:56.196Z,94.73
2018-04-25T04:39:59.509Z,94.66
2018-04-25T04:43:02.806Z,94.68
2018-04-25T04:46:06.126Z,94.69
2018-04-25T04:49:09.437Z,94.75
2018-04-25T04:52:13.525Z,94.78
2018-04-25T04:55:16.845Z,95.01
2018-04-25T04:58:20.917Z,95.16
2018-04-25T05:01:24.241Z,95.37
2018-04-25T05:04:27.546Z,95.51
2018-04-25T05:07:30.861Z,95.89
2018-04-25T05:10:34.933Z,96.43
2018-04-25T05:13:38.267Z,96.67
2018-04-25T05:16:42.341Z,96.36
2018-04-25T05:19:45.675Z,95.90
2018-04-25T05:22:49.745Z,95.34
2018-04-25T05:25:53.069Z,95.06
2018-04-25T05:28:56.385Z,94.50
2018-04-25T05:32:00.482Z,93.75
2018-04-25T05:35:03.797Z,93.95
2018-04-25T05:38:07.868Z,93.87
2018-04-25T05:41:11.197Z,94.00
2018-04-25T05:44:14.500Z,93.95
2018-04-25T05:47:18.586Z,93.96
2018-04-25T05:50:21.897Z,94.09
2018-04-25T05:53:25.218Z,93.88
2018-04-25T05:56:29.282Z,94.13
2018-04-25T05:59:32.605Z,93.88
2018-04-25T06:02:35.939Z,93.85
2018-04-25T06:05:39.259Z,94.01
2018-04-25T06:08:42.587Z,94.15
2018-04-25T06:11:45.895Z,94.20
2018-04-25T06:14:49.221Z,93.97
2018-04-25T06:17:52.532Z,93.87
2018-04-25T06:20:55.848Z,93.91
2018-04-25T06:23:59.166Z,94.12
2018-04-25T06:27:02.599Z,94.19
2018-04-25T06:30:05.929Z,93.93
2018-04-25T06:33:09.237Z,94.01
2018-04-25T06:36:12.554Z,94.10
2018-04-25T06:39:15.853Z,94.09
2018-04-25T06:42:19.174Z,93.75
2018-04-25T06:45:23.249Z,93.56
2018-04-25T06:48:26.578Z,93.39
2018-04-25T06:51:30.650Z,93.25
2018-04-25T06:54:33.978Z,93.24
2018-04-25T06:57:37.305Z,93.44
2018-04-25T07:00:40.614Z,93.15
2018-04-25T07:03:43.933Z,92.97
2018-04-25T07:06:47.252Z,93.05
2018-04-25T07:09:50.554Z,93.22
2018-04-25T07:12:53.881Z,93.28
2018-04-25T07:15:57.941Z,92.82
2018-04-25T07:19:01.269Z,93.01
2018-04-25T07:22:04.570Z,93.26
2018-04-25T07:25:07.893Z,93.24
2018-04-25T07:28:11.194Z,93.51
2018-04-25T07:31:14.514Z,93.44
2018-04-25T07:34:17.809Z,93.22
2018-04-25T07:37:21.134Z,92.96
2018-04-25T07:40:24.433Z,92.76
2018-04-25T07:43:27.761Z,92.73
2018-04-25T07:46:31.850Z,92.65
2018-04-25T07:49:35.184Z,90.17
2018-04-25T07:52:38.505Z,88.79
2018-04-25T07:55:41.856Z,89.49
2018-04-25T07:58:45.937Z,89.65
2018-04-25T08:01:49.235Z,90.10
2018-04-25T08:04:52.550Z,90.31
2018-04-25T08:07:55.861Z,90.20
2018-04-25T08:10:59.957Z,89.80
2018-04-25T08:14:20.788Z,89.30
2018-04-25T08:17:42.533Z,89.04
2018-04-25T08:24:30.529Z,89.76
2018-04-25T08:27:33.837Z,90.00
2018-04-25T08:30:37.169Z,90.22
2018-04-25T08:33:42.082Z,90.29
2018-04-25T08:36:45.400Z,91.10
2018-04-25T08:39:49.483Z,89.79
2018-04-25T08:42:52.786Z,89.94
2018-04-25T08:45:56.105Z,89.82
2018-04-25T08:49:00.172Z,90.58
2018-04-25T08:52:03.485Z,90.88
2018-04-25T08:55:06.785Z,90.02
2018-04-25T08:58:10.100Z,89.72
2018-04-25T09:01:13.424Z,89.15
2018-04-25T09:04:17.490Z,89.38
2018-04-25T09:07:20.802Z,89.46
2018-04-25T09:10:24.105Z,90.06
2018-04-25T09:13:28.362Z,86.35
2018-04-25T09:16:31.661Z,88.62
2018-04-25T09:19:34.969Z,87.20
2018-04-25T09:22:38.289Z,86.94
2018-04-25T09:25:41.588Z,87.56
2018-04-25T09:28:44.901Z,88.34
2018-04-25T09:31:48.237Z,87.35
2018-04-25T09:34:51.529Z,85.86
2018-04-25T09:37:54.841Z,85.50
2018-04-25T09:40:58.132Z,86.54
2018-04-25T09:44:01.462Z,87.57
2018-04-25T09:47:04.770Z,86.24
2018-04-25T09:50:08.878Z,82.75
2018-04-25T09:53:12.173Z,80.99
2018-04-25T09:56:15.502Z,81.29
2018-04-25T09:59:18.801Z,81.84
2018-04-25T10:02:28.421Z,80.75
2018-04-25T10:05:31.761Z,78.86
2018-04-25T10:08:35.076Z,77.19
2018-04-25T10:11:38.397Z,79.20
2018-04-25T10:14:41.696Z,79.13
2018-04-25T10:17:45.029Z,78.70
2018-04-25T10:20:49.096Z,77.65
2018-04-25T10:23:52.432Z,77.85
2018-04-25T10:26:55.727Z,77.66
2018-04-25T10:29:59.048Z,78.55
2018-04-25T10:33:02.344Z,77.99
2018-04-25T10:36:05.674Z,78.94
2018-04-25T10:39:08.981Z,77.89
2018-04-25T10:42:12.297Z,77.87
2018-04-25T10:45:15.596Z,75.72
2018-04-25T10:48:18.925Z,78.52
2018-04-25T10:51:22.257Z,76.95
2018-04-25T10:54:25.562Z,74.63
2018-04-25T10:57:28.897Z,73.97
2018-04-25T11:00:32.973Z,75.50
2018-04-25T11:03:36.303Z,75.13
2018-04-25T11:06:39.648Z,76.65
2018-04-25T11:09:43.019Z,74.95
2018-04-25T11:12:46.345Z,74.87
2018-04-25T11:15:49.646Z,72.53
2018-04-25T11:18:52.997Z,73.93
2018-04-25T11:21:57.109Z,72.50
2018-04-25T11:25:01.173Z,72.77
2018-04-25T11:28:04.493Z,75.39
2018-04-25T11:31:07.826Z,76.70
2018-04-25T11:34:11.926Z,75.80
2018-04-25T11:37:15.225Z,76.60
2018-04-25T11:40:19.305Z,75.58
2018-04-25T11:43:22.609Z,74.94
2018-04-25T11:46:25.924Z,75.79
2018-04-25T11:49:29.226Z,76.62
2018-04-25T11:52:32.553Z,75.57
2018-04-25T11:55:35.886Z,75.01
2018-04-25T11:58:39.186Z,74.17
2018-04-25T12:01:42.500Z,73.56
2018-04-25T12:04:45.803Z,72.59
2018-04-25T12:07:49.888Z,73.70
2018-04-25T12:10:53.188Z,73.36
2018-04-25T12:13:56.513Z,74.00
2018-04-25T12:17:00.014Z,74.57
2018-04-25T12:20:03.368Z,76.31
2018-04-25T12:23:06.645Z,74.61
2018-04-25T12:26:09.966Z,75.24
2018-04-25T12:29:13.269Z,76.92
2018-04-25T12:32:16.597Z,77.29
2018-04-25T12:35:20.682Z,76.56
2018-04-25T12:38:23.994Z,76.82
2018-04-25T12:41:27.361Z,76.18
2018-04-25T12:44:30.661Z,76.48
2018-04-25T12:47:33.997Z,77.01
2018-04-25T12:50:37.305Z,77.88
2018-04-25T12:53:41.389Z,78.06
2018-04-25T12:56:44.699Z,78.16
2018-04-25T12:59:48.013Z,78.32
2018-04-25T13:02:52.080Z,79.55
2018-04-25T13:05:55.393Z,78.88
2018-04-25T13:08:58.721Z,79.07
2018-04-25T13:12:02.811Z,78.91
2018-04-25T13:15:06.215Z,78.26
2018-04-25T13:18:10.205Z,77.11
2018-04-25T13:21:13.567Z,77.95
2018-04-25T13:24:17.608Z,77.78
2018-04-25T13:27:20.920Z,78.07
2018-04-25T13:30:24.225Z,78.04
2018-04-25T13:33:27.549Z,77.21
2018-04-25T13:36:30.877Z,76.53
2018-04-25T13:39:34.179Z,75.01
2018-04-25T13:42:37.494Z,75.54
2018-04-25T13:45:40.797Z,73.81
2018-04-25T13:48:44.128Z,73.11
2018-04-25T13:51:48.194Z,73.37
2018-04-25T13:54:51.513Z,74.33
2018-04-25T13:57:54.870Z,72.28
2018-04-25T14:00:58.955Z,70.62
2018-04-25T14:04:02.272Z,72.14
2018-04-25T14:07:05.597Z,73.86
2018-04-25T14:10:08.966Z,73.90
2018-04-25T14:13:12.271Z,73.24
2018-04-25T14:16:15.590Z,73.27
2018-04-25T14:19:18.912Z,73.00
2018-04-25T14:22:22.485Z,73.55
2018-04-25T14:25:25.827Z,73.67
2018-04-25T14:28:29.913Z,75.15
2018-04-25T14:31:33.224Z,75.36
2018-04-25T14:34:36.544Z,74.42
2018-04-25T14:37:40.618Z,75.57
2018-04-25T14:40:43.945Z,75.72
2018-04-25T14:43:48.014Z,73.59
2018-04-25T14:46:51.333Z,73.30
2018-04-25T14:49:54.645Z,74.88
2018-04-25T14:52:57.980Z,72.84
2018-04-25T14:56:01.302Z,73.03
2018-04-25T14:59:05.211Z,74.73
2018-04-25T15:02:08.590Z,75.36
2018-04-25T15:05:11.889Z,76.90
2018-04-25T15:08:15.209Z,76.81
2018-04-25T15:11:18.517Z,76.50
2018-04-25T15:14:21.834Z,76.51
2018-04-25T15:17:25.169Z,76.00
2018-04-25T15:20:28.473Z,75.89
2018-04-25T15:23:31.801Z,75.59
2018-04-25T15:26:35.118Z,74.63
2018-04-25T15:29:38.438Z,74.18
2018-04-25T15:32:42.505Z,73.60
2018-04-25T15:35:45.820Z,73.81
2018-04-25T15:38:49.139Z,74.12
2018-04-25T15:41:53.206Z,73.07
2018-04-25T15:44:56.526Z,73.71
2018-04-25T15:47:59.823Z,75.26
2018-04-25T15:51:03.141Z,74.15
2018-04-25T15:54:07.209Z,73.99
2018-04-25T15:57:10.533Z,74.45
2018-04-25T16:00:13.832Z,75.76
2018-04-25T16:03:17.153Z,76.34
2018-04-25T16:06:20.469Z,75.45
2018-04-25T16:09:23.788Z,74.13
2018-04-25T16:12:27.184Z,74.31
2018-04-25T16:15:30.450Z,75.01
2018-04-25T16:18:33.745Z,74.90
2018-04-25T16:21:37.061Z,74.53
2018-04-25T16:24:40.368Z,73.41
2018-04-25T16:27:43.930Z,73.97
2018-04-25T16:30:47.356Z,74.27
2018-04-25T16:33:50.602Z,73.79
2018-04-25T16:36:53.927Z,74.23
2018-04-25T16:39:57.236Z,73.88
2018-04-25T16:43:00.577Z,73.71
2018-04-25T16:46:03.892Z,74.38
2018-04-25T16:49:07.217Z,74.79
2018-04-25T16:52:10.513Z,75.20
2018-04-25T16:55:13.837Z,74.80
2018-04-25T16:58:17.128Z,75.32
2018-04-25T17:01:20.454Z,75.88
2018-04-25T17:04:23.753Z,76.65
2018-04-25T17:07:27.080Z,77.03
2018-04-25T17:10:31.149Z,76.98
2018-04-25T17:13:34.478Z,76.22
2018-04-25T17:16:37.777Z,75.58
2018-04-25T17:19:41.089Z,76.25
2018-04-25T17:22:45.173Z,76.88
2018-04-25T17:25:48.736Z,77.75
2018-04-25T17:28:52.119Z,78.77
2018-04-25T17:31:55.458Z,79.14
2018-04-25T17:34:58.750Z,79.03
2018-04-25T17:38:02.068Z,78.98
2018-04-25T17:41:05.390Z,79.29
2018-04-25T17:44:09.455Z,79.37
2018-04-25T17:47:12.772Z,79.38
2018-04-25T17:50:16.080Z,80.09
2018-04-25T17:53:19.414Z,79.89
2018-04-25T17:56:23.476Z,79.85
2018-04-25T17:59:26.793Z,80.25
2018-04-25T18:02:30.874Z,80.28
2018-04-25T18:05:34.196Z,80.76
2018-04-25T18:08:37.517Z,80.84
2018-04-25T18:11:40.854Z,81.01
2018-04-25T18:14:44.144Z,80.98
2018-04-25T18:17:47.467Z,80.98
2018-04-25T18:20:50.771Z,80.01
2018-04-25T18:23:54.150Z,80.12
2018-04-25T18:26:57.477Z,80.59
2018-04-25T18:30:00.818Z,81.01
2018-04-25T18:33:04.323Z,81.46
2018-04-25T18:36:07.898Z,81.78
2018-04-25T18:39:11.298Z,81.37
2018-04-25T18:42:16.285Z,81.49
2018-04-25T18:45:19.756Z,81.82
2018-04-25T18:48:23.303Z,82.12
2018-04-25T18:51:26.854Z,82.64
2018-04-25T18:54:30.399Z,83.31
2018-04-25T18:57:33.800Z,83.66
2018-04-25T19:00:37.715Z,84.84
2018-04-25T19:03:41.160Z,85.68
2018-04-25T19:06:44.635Z,86.31
2018-04-25T19:09:48.214Z,86.41
2018-04-25T19:12:51.595Z,86.38
2018-04-25T19:15:54.995Z,86.69
2018-04-25T19:18:58.408Z,86.98
2018-04-25T19:22:01.852Z,87.50
2018-04-25T19:25:05.226Z,87.26
2018-04-25T19:28:08.635Z,87.38
2018-04-25T19:31:12.053Z,87.44
2018-04-25T19:34:15.887Z,87.49
2018-04-25T19:37:20.204Z,87.29
2018-04-25T19:40:23.694Z,87.13
2018-04-25T19:43:27.284Z,87.04
2018-04-25T19:46:30.652Z,87.17
2018-04-25T19:49:35.026Z,86.73
2018-04-25T19:52:39.399Z,86.77
2018-04-25T19:55:42.808Z,86.35
2018-04-25T19:58:46.275Z,86.29
2018-04-25T20:01:50.674Z,85.40
2018-04-25T20:04:54.369Z,85.84
2018-04-25T20:07:57.783Z,86.40
2018-04-25T20:11:01.423Z,86.63
2018-04-25T20:14:04.931Z,86.32
2018-04-25T20:17:08.367Z,85.99
2018-04-25T20:20:12.498Z,86.38
2018-04-25T20:23:16.240Z,86.52
2018-04-25T20:26:19.704Z,86.61
2018-04-25T20:29:23.587Z,87.10
2018-04-25T20:32:26.960Z,86.56
2018-04-25T20:35:30.296Z,86.46
2018-04-25T20:38:33.621Z,86.00
2018-04-25T20:41:36.966Z,86.00
2018-04-25T20:44:40.334Z,86.30
2018-04-25T20:47:43.665Z,86.88
2018-04-25T20:50:46.974Z,87.52
2018-04-25T20:53:50.309Z,86.93
2018-04-25T20:56:53.922Z,87.09
2018-04-25T20:59:57.301Z,87.62
2018-04-25T21:03:00.843Z,88.67
2018-04-25T21:06:04.205Z,88.82
2018-04-25T21:09:07.558Z,88.39
2018-04-25T21:12:10.879Z,88.30
2018-04-25T21:15:14.210Z,88.77
2018-04-25T21:18:18.321Z,89.77
2018-04-25T21:21:21.667Z,90.28
2018-04-25T21:24:25.000Z,90.72
2018-04-25T21:27:28.334Z,90.88
2018-04-25T21:30:32.450Z,90.81
2018-04-25T21:33:36.583Z,90.83
2018-04-25T21:36:40.694Z,90.45
2018-04-25T21:39:44.025Z,90.43
2018-04-25T21:42:47.333Z,89.41
2018-04-25T21:45:50.694Z,89.65
2018-04-25T21:48:54.025Z,90.10
2018-04-25T21:51:57.365Z,90.19
2018-04-25T21:55:01.513Z,90.56
2018-04-25T21:58:04.931Z,90.72
2018-04-25T22:01:08.185Z,90.31
2018-04-25T22:04:12.002Z,90.54
2018-04-25T22:07:15.350Z,90.33
2018-04-25T22:10:18.751Z,90.30
2018-04-25T22:13:22.094Z,90.21
2018-04-25T22:16:25.454Z,90.47
2018-04-25T22:19:28.769Z,90.24
2018-04-25T22:22:32.875Z,90.04
2018-04-25T22:25:36.973Z,89.62
2018-04-25T22:28:40.327Z,89.29
2018-04-25T22:31:43.761Z,89.06
2018-04-25T22:34:47.097Z,89.08
2018-04-25T22:37:51.252Z,89.32
2018-04-25T22:40:54.588Z,89.30
2018-04-25T22:43:57.932Z,89.48
2018-04-25T22:47:01.258Z,89.45
2018-04-25T22:50:04.635Z,89.54
2018-04-25T22:53:07.974Z,89.23
2018-04-25T22:56:11.315Z,88.85
2018-04-25T22:59:14.675Z,89.48
2018-04-25T23:02:18.009Z,89.05
2018-04-25T23:05:21.370Z,89.06
2018-04-25T23:08:24.695Z,89.17
2018-04-25T23:11:28.026Z,89.34
2018-04-25T23:14:31.353Z,89.48
2018-04-25T23:17:35.095Z,88.93
2018-04-25T23:20:38.489Z,88.67
2018-04-25T23:23:41.834Z,87.64
2018-04-25T23:26:45.189Z,87.58
2018-04-25T23:29:48.551Z,87.80
2018-04-25T23:32:51.967Z,87.17
2018-04-25T23:35:55.258Z,87.33
2018-04-25T23:38:59.333Z,87.77
2018-04-25T23:42:03.005Z,88.00
2018-04-25T23:45:06.325Z,88.09
2018-04-25T23:48:10.438Z,88.21
2018-04-25T23:51:13.764Z,88.48
2018-04-25T23:54:17.097Z,88.83
2018-04-25T23:57:21.168Z,89.06
